Bornholm — C4KF2 — position and weather

sailwx.info

Track history (hours):
 
Tides and Currents Weather Stations Pressure Air Temp Water Temp Dewpoint Dewpoint Depression Visibility Wind Speed Wind Dir Waves Ship Positions

Bornholm

Last reported at 2015-Mar-26 22:29 UTC. Time now 2015-Mar-27 15:47 UTC.
Position N 35°56' W 005°05'.

Length 118 m; draft 7.1 m.

Type: Cargo ship. MMSI: 212521000.

Date/timePositionNaut miles runAvg speedWind from/ knotsBaromVisibWave heightAir tempDewpointWater temp
2015-Mar-26 22:29N 35°56' W 005°05'1415.0
2015-Mar-26 21:34N 35°58' W 005°22'2015.1
2015-Mar-26 20:16N 35°54' W 005°46'25810.7
2015-Mar-25 20:09N 38°27' W 010°08'  
2015-Mar-22 18:25N 50°32' W 000°02'1214.4
2015-Mar-22 17:33N 50°35' E 000°17'1414.2
2015-Mar-22 16:33N 50°40' E 000°37'1313.2
2015-Mar-22 15:33N 50°48' E 000°54'1211.7
2015-Mar-22 14:33N 50°55' E 001°10'10 9.9
2015-Mar-22 13:33N 51°01' E 001°22'10 9.5
2015-Mar-22 12:34N 51°07' E 001°33'1110.8
2015-Mar-22 11:33N 51°14' E 001°46'1413.9
2015-Mar-22 10:33N 51°27' E 001°57'1515.1
2015-Mar-22 09:34N 51°38' E 002°12'17112.2
2015-Mar-21 19:29N 53°58' E 004°55'1111.9
2015-Mar-21 18:33N 54°09' E 005°03'1612.1
2015-Mar-21 17:15N 54°22' E 005°15'26312.0
2015-Mar-20 19:21N 57°45' E 010°15'1012.1
2015-Mar-20 18:33N 57°48' E 010°33'1111.2
2015-Mar-20 17:33N 57°45' E 010°53'1312.7
2015-Mar-20 16:33N 57°36' E 011°10'1312.7
2015-Mar-20 15:33N 57°27' E 011°27'1313.0
2015-Mar-20 14:33N 57°15' E 011°35'1312.9
2015-Mar-20 13:33N 57°03' E 011°43'1312.7
2015-Mar-20 12:33N 56°51' E 011°51'1312.7
2015-Mar-20 11:33N 56°39' E 011°58'1212.5
2015-Mar-20 10:33N 56°27' E 012°05'1211.9
2015-Mar-20 09:33N 56°16' E 012°13'1312.8
2015-Mar-20 08:33N 56°08' E 012°31'1313.0
2015-Mar-20 07:33N 55°57' E 012°43'1212.4
2015-Mar-20 06:34N 55°44' E 012°41'1211.6
2015-Mar-20 05:33N 55°33' E 012°43'1211.7
2015-Mar-20 04:33N 55°21' E 012°41'1111.3
2015-Mar-20 03:33N 55°15' E 012°58'1312.6
2015-Mar-20 02:33N 55°07' E 013°16'1312.8
2015-Mar-20 01:32N 54°60' E 013°34'1312.4
2015-Mar-20 00:31N 54°51' E 013°50'1212.7
2015-Mar-19 23:33N 54°43' E 014°07'1512.2
2015-Mar-19 22:19N 54°39' E 014°32'1012.6
2015-Mar-19 21:33N 54°40' E 014°48'1312.6
2015-Mar-19 20:33N 54°42' E 015°10'10412.6
2015-Mar-19 12:19N 54°58' E 018°08'1012.8
2015-Mar-19 11:33N 54°60' E 018°25'1313.0
2015-Mar-19 10:33N 54°59' E 018°47'1312.9
2015-Mar-19 09:33N 54°59' E 019°10'8 7.9
2015-Mar-19 08:32N 54°51' E 019°07'1312.8
2015-Mar-19 07:33N 54°40' E 018°58'1312.6
2015-Mar-19 06:33N 54°30' E 018°45'6 6.5
2015-Mar-19 05:34N 54°24' E 018°41'1 0.8
2015-Mar-19 04:32N 54°23' E 018°40'0 0.0
2015-Mar-19 03:32N 54°23' E 018°40'0 0.0
2015-Mar-19 02:32N 54°23' E 018°40'0 0.0
2015-Mar-19 01:33N 54°23' E 018°40'4 3.6
2015-Mar-19 00:34N 54°27' E 018°40'9 9.0
2015-Mar-18 23:33N 54°30' E 018°55'1211.9
2015-Mar-18 22:33N 54°38' E 019°09'1313.0
2015-Mar-18 21:33N 54°42' E 019°30'1312.0
2015-Mar-18 20:30N 54°39' E 019°52'1 0.1
2015-Mar-18 10:30N 54°38' E 019°53'4 4.6
2015-Mar-18 09:33N 54°40' E 019°46'1 1.0
2015-Mar-18 08:33N 54°41' E 019°45'5 4.6
2015-Mar-18 07:33N 54°43' E 019°38'5 5.0
2015-Mar-18 06:33N 54°46' E 019°31'5 5.4
2015-Mar-18 05:33N 54°49' E 019°23'5 5.1
2015-Mar-18 04:33N 54°53' E 019°17'6 5.7
2015-Mar-18 03:33N 54°58' E 019°14'10 9.6
2015-Mar-18 02:31N 55°08' E 019°10'1212.5
2015-Mar-18 01:32N 55°20' E 019°05'1111.5
2015-Mar-18 00:33N 55°31' E 019°05'1212.1
2015-Mar-17 23:31N 55°43' E 019°12'1212.2
2015-Mar-17 22:33N 55°54' E 019°19'  
Track history (hours):
 
Tides and Currents Weather Stations Pressure Air Temp Water Temp Dewpoint Dewpoint Depression Visibility Wind Speed Wind Dir Waves Ship Positions

Bornholm

Last reported at 2015-Mar-26 22:29 UTC. Time now 2015-Mar-27 15:47 UTC.
Position N 35°56' W 005°05'.

Length 118 m; draft 7.1 m.

Type: Cargo ship. MMSI: 212521000.

Date/timePositionNaut miles runAvg speedWind from/ knotsBaromVisibWave heightAir tempDewpointWater temp
2015-Mar-26 22:29N 35°56' W 005°05'1415.0
2015-Mar-26 21:34N 35°58' W 005°22'2015.1
2015-Mar-26 20:16N 35°54' W 005°46'25810.7
2015-Mar-25 20:09N 38°27' W 010°08'  
2015-Mar-22 18:25N 50°32' W 000°02'1214.4
2015-Mar-22 17:33N 50°35' E 000°17'1414.2
2015-Mar-22 16:33N 50°40' E 000°37'1313.2
2015-Mar-22 15:33N 50°48' E 000°54'1211.7
2015-Mar-22 14:33N 50°55' E 001°10'10 9.9
2015-Mar-22 13:33N 51°01' E 001°22'10 9.5
2015-Mar-22 12:34N 51°07' E 001°33'1110.8
2015-Mar-22 11:33N 51°14' E 001°46'1413.9
2015-Mar-22 10:33N 51°27' E 001°57'1515.1
2015-Mar-22 09:34N 51°38' E 002°12'17112.2
2015-Mar-21 19:29N 53°58' E 004°55'1111.9
2015-Mar-21 18:33N 54°09' E 005°03'1612.1
2015-Mar-21 17:15N 54°22' E 005°15'26312.0
2015-Mar-20 19:21N 57°45' E 010°15'1012.1
2015-Mar-20 18:33N 57°48' E 010°33'1111.2
2015-Mar-20 17:33N 57°45' E 010°53'1312.7
2015-Mar-20 16:33N 57°36' E 011°10'1312.7
2015-Mar-20 15:33N 57°27' E 011°27'1313.0
2015-Mar-20 14:33N 57°15' E 011°35'1312.9
2015-Mar-20 13:33N 57°03' E 011°43'1312.7
2015-Mar-20 12:33N 56°51' E 011°51'1312.7
2015-Mar-20 11:33N 56°39' E 011°58'1212.5
2015-Mar-20 10:33N 56°27' E 012°05'1211.9
2015-Mar-20 09:33N 56°16' E 012°13'1312.8
2015-Mar-20 08:33N 56°08' E 012°31'1313.0
2015-Mar-20 07:33N 55°57' E 012°43'1212.4
2015-Mar-20 06:34N 55°44' E 012°41'1211.6
2015-Mar-20 05:33N 55°33' E 012°43'1211.7
2015-Mar-20 04:33N 55°21' E 012°41'1111.3
2015-Mar-20 03:33N 55°15' E 012°58'1312.6
2015-Mar-20 02:33N 55°07' E 013°16'1312.8
2015-Mar-20 01:32N 54°60' E 013°34'1312.4
2015-Mar-20 00:31N 54°51' E 013°50'1212.7
2015-Mar-19 23:33N 54°43' E 014°07'1512.2
2015-Mar-19 22:19N 54°39' E 014°32'1012.6
2015-Mar-19 21:33N 54°40' E 014°48'1312.6
2015-Mar-19 20:33N 54°42' E 015°10'10412.6
2015-Mar-19 12:19N 54°58' E 018°08'1012.8
2015-Mar-19 11:33N 54°60' E 018°25'1313.0
2015-Mar-19 10:33N 54°59' E 018°47'1312.9
2015-Mar-19 09:33N 54°59' E 019°10'8 7.9
2015-Mar-19 08:32N 54°51' E 019°07'1312.8
2015-Mar-19 07:33N 54°40' E 018°58'1312.6
2015-Mar-19 06:33N 54°30' E 018°45'6 6.5
2015-Mar-19 05:34N 54°24' E 018°41'1 0.8
2015-Mar-19 04:32N 54°23' E 018°40'0 0.0
2015-Mar-19 03:32N 54°23' E 018°40'0 0.0
2015-Mar-19 02:32N 54°23' E 018°40'0 0.0
2015-Mar-19 01:33N 54°23' E 018°40'4 3.6
2015-Mar-19 00:34N 54°27' E 018°40'9 9.0
2015-Mar-18 23:33N 54°30' E 018°55'1211.9
2015-Mar-18 22:33N 54°38' E 019°09'1313.0
2015-Mar-18 21:33N 54°42' E 019°30'1312.0
2015-Mar-18 20:30N 54°39' E 019°52'1 0.1
2015-Mar-18 10:30N 54°38' E 019°53'4 4.6
2015-Mar-18 09:33N 54°40' E 019°46'1 1.0
2015-Mar-18 08:33N 54°41' E 019°45'5 4.6
2015-Mar-18 07:33N 54°43' E 019°38'5 5.0
2015-Mar-18 06:33N 54°46' E 019°31'5 5.4
2015-Mar-18 05:33N 54°49' E 019°23'5 5.1
2015-Mar-18 04:33N 54°53' E 019°17'6 5.7
2015-Mar-18 03:33N 54°58' E 019°14'10 9.6
2015-Mar-18 02:31N 55°08' E 019°10'1212.5
2015-Mar-18 01:32N 55°20' E 019°05'1111.5
2015-Mar-18 00:33N 55°31' E 019°05'1212.1
2015-Mar-17 23:31N 55°43' E 019°12'1212.2
2015-Mar-17 22:33N 55°54' E 019°19'  

Dump ship's entire track history